Time;durP1;ratioP1;P1;durP2;ratioP2;P2;SDS_P1;SDS_P2;PMS_P1;PMS_P2;Temp;Humidity;BMP_temperature;BMP_pressure;BME280_temperature;BME280_humidity;BME280_pressure;Samples;Min_cycle;Max_cycle;Signal;HPM_P1;HPM_P2
2020/12/08 00:01:39;;;;;;;17.77;12.27;;;1.90;95.20;;;;;;5067187;28;20246;-83
2020/12/08 00:04:06;;;;;;;19.37;13.37;;;1.70;95.30;;;;;;5073613;28;20205;-83
2020/12/08 00:06:33;;;;;;;18.23;13.50;;;1.80;95.70;;;;;;5070926;28;20256;-84
2020/12/08 00:09:00;;;;;;;18.53;13.17;;;1.90;95.80;;;;;;5077823;28;20204;-83
2020/12/08 00:11:26;;;;;;;19.87;13.80;;;2.00;95.40;;;;;;5073069;28;20755;-84
2020/12/08 00:13:52;;;;;;;21.13;13.57;;;1.90;95.20;;;;;;5070317;28;20287;-84
2020/12/08 00:16:19;;;;;;;20.33;13.97;;;1.80;95.40;;;;;;5076915;28;20231;-87
2020/12/08 00:18:45;;;;;;;21.73;13.47;;;1.70;95.50;;;;;;5077840;28;20368;-83
2020/12/08 00:21:12;;;;;;;21.80;14.07;;;1.80;96.00;;;;;;5070026;28;20229;-83
2020/12/08 00:23:39;;;;;;;19.47;13.67;;;1.90;95.50;;;;;;5077204;28;20264;-83
2020/12/08 00:26:05;;;;;;;23.20;14.13;;;2.00;95.40;;;;;;5076864;28;20229;-85
2020/12/08 00:28:32;;;;;;;20.60;14.13;;;1.90;94.60;;;;;;5075026;28;20463;-86
2020/12/08 00:30:59;;;;;;;19.97;13.60;;;1.90;95.30;;;;;;5070409;28;20243;-85
2020/12/08 00:33:26;;;;;;;20.57;14.73;;;1.90;95.40;;;;;;5074963;28;20288;-84
2020/12/08 00:35:53;;;;;;;18.73;13.00;;;2.00;95.10;;;;;;5071330;28;20245;-85
2020/12/08 00:38:20;;;;;;;19.07;12.73;;;2.10;94.50;;;;;;5083870;28;20200;-84
2020/12/08 00:40:47;;;;;;;25.73;13.63;;;2.00;94.50;;;;;;5078583;28;20224;-83
2020/12/08 00:43:14;;;;;;;23.77;12.87;;;2.00;94.40;;;;;;5076281;28;20223;-84
2020/12/08 00:45:40;;;;;;;18.17;13.30;;;1.80;94.40;;;;;;5075971;28;20250;-85
2020/12/08 00:48:06;;;;;;;24.83;13.83;;;1.70;95.40;;;;;;5076002;28;20604;-84
2020/12/08 00:50:33;;;;;;;22.27;14.17;;;1.60;95.50;;;;;;5074838;28;20312;-83
2020/12/08 00:53:00;;;;;;;27.50;13.70;;;1.60;95.80;;;;;;5077580;28;20217;-84
2020/12/08 00:55:26;;;;;;;30.80;14.10;;;1.70;96.20;;;;;;5077607;28;20231;-85
2020/12/08 00:57:54;;;;;;;26.27;14.10;;;1.60;95.80;;;;;;5077548;28;20267;-84
2020/12/08 01:00:21;;;;;;;28.90;13.53;;;1.40;96.00;;;;;;5069836;28;20233;-85
2020/12/08 01:02:48;;;;;;;38.17;15.43;;;1.30;96.40;;;;;;5075644;28;20215;-83
2020/12/08 01:05:14;;;;;;;30.63;14.50;;;1.30;96.90;;;;;;5079329;28;20240;-84
2020/12/08 01:07:41;;;;;;;25.53;14.10;;;1.30;96.90;;;;;;5081936;28;20493;-83
2020/12/08 01:10:07;;;;;;;21.87;13.87;;;1.40;97.10;;;;;;5083292;28;20231;-84
2020/12/08 01:12:33;;;;;;;19.63;13.77;;;1.40;97.00;;;;;;5070675;28;20395;-86
2020/12/08 01:15:01;;;;;;;20.93;13.23;;;1.60;96.80;;;;;;5085079;28;20292;-85
2020/12/08 01:17:27;;;;;;;28.57;13.80;;;1.60;96.20;;;;;;5073823;28;20271;-84
2020/12/08 01:19:54;;;;;;;25.60;13.50;;;1.70;95.50;;;;;;5069422;28;20224;-84
2020/12/08 01:22:20;;;;;;;22.37;13.10;;;1.70;95.70;;;;;;5073086;28;20210;-85
2020/12/08 01:24:46;;;;;;;21.03;13.73;;;1.80;95.30;;;;;;5068602;28;20898;-83
2020/12/08 01:27:13;;;;;;;23.97;13.50;;;1.70;95.40;;;;;;5072835;28;20232;-83
2020/12/08 01:29:39;;;;;;;22.20;12.57;;;1.80;95.60;;;;;;5067809;28;20655;-83
2020/12/08 01:32:06;;;;;;;25.50;12.20;;;1.80;95.30;;;;;;5068725;28;20230;-85
2020/12/08 01:34:33;;;;;;;88.33;14.77;;;1.80;94.40;;;;;;5063542;28;20231;-82
2020/12/08 01:37:01;;;;;;;21.17;11.80;;;1.80;94.40;;;;;;5062871;28;20832;-84
2020/12/08 01:39:31;;;;;;;21.93;11.07;;;1.70;94.80;;;;;;5073421;28;20233;-83
2020/12/08 01:41:58;;;;;;;20.73;11.20;;;1.70;94.80;;;;;;5070979;28;20225;-84
2020/12/08 01:44:24;;;;;;;14.30;10.37;;;1.70;94.40;;;;;;5075395;28;20299;-83
2020/12/08 01:46:51;;;;;;;13.27;9.97;;;1.70;94.40;;;;;;5072932;28;20223;-83
2020/12/08 01:49:18;;;;;;;14.87;10.23;;;1.70;94.40;;;;;;5071359;28;20296;-83
2020/12/08 01:51:45;;;;;;;42.73;11.57;;;1.70;94.40;;;;;;5067663;28;20228;-84
2020/12/08 01:54:12;;;;;;;21.53;10.67;;;1.50;94.30;;;;;;5069439;28;20828;-83
2020/12/08 01:56:39;;;;;;;17.30;10.90;;;1.50;94.50;;;;;;5074130;28;20228;-83
2020/12/08 01:59:05;;;;;;;47.43;12.30;;;1.60;94.40;;;;;;5067397;28;20214;-84
2020/12/08 02:01:32;;;;;;;27.73;11.47;;;1.50;94.30;;;;;;5073936;28;20223;-83
2020/12/08 02:03:58;;;;;;;24.83;11.57;;;1.50;94.30;;;;;;5075918;28;20670;-82
2020/12/08 02:06:25;;;;;;;24.63;11.23;;;1.50;94.40;;;;;;5071677;28;20305;-86
2020/12/08 02:08:52;;;;;;;18.50;11.17;;;1.40;95.10;;;;;;5074820;28;20218;-82
2020/12/08 02:11:19;;;;;;;28.17;11.97;;;1.30;95.20;;;;;;5077467;28;20219;-86
2020/12/08 02:13:45;;;;;;;24.40;11.33;;;1.40;95.30;;;;;;5079655;28;20271;-85
2020/12/08 02:16:12;;;;;;;51.50;11.23;;;1.40;94.90;;;;;;5072136;28;20686;-83
2020/12/08 02:18:38;;;;;;;14.63;10.53;;;1.40;94.70;;;;;;5080272;28;20266;-85
2020/12/08 02:21:06;;;;;;;17.37;10.10;;;1.40;95.00;;;;;;5080481;28;20314;-86
2020/12/08 02:23:32;;;;;;;13.53;10.07;;;1.30;95.20;;;;;;5075354;28;20208;-83
2020/12/08 02:26:00;;;;;;;23.03;10.33;;;1.40;94.90;;;;;;5068120;28;20235;-82
2020/12/08 02:28:27;;;;;;;39.53;10.50;;;1.40;94.30;;;;;;5073281;28;20204;-84
2020/12/08 02:30:54;;;;;;;22.00;9.43;;;1.30;94.30;;;;;;5074614;28;20301;-84
2020/12/08 02:33:23;;;;;;;13.20;9.43;;;1.30;94.50;;;;;;5064806;28;20212;-87
2020/12/08 02:35:49;;;;;;;13.23;9.00;;;1.20;94.60;;;;;;5068637;28;20979;-85
2020/12/08 02:38:17;;;;;;;27.93;10.10;;;1.30;94.30;;;;;;5077008;28;20569;-83
2020/12/08 02:40:45;;;;;;;36.33;10.47;;;1.20;94.30;;;;;;5061489;28;20236;-83
2020/12/08 02:43:12;;;;;;;14.80;9.13;;;1.00;94.80;;;;;;5074272;28;20623;-84
2020/12/08 02:45:38;;;;;;;16.63;9.03;;;0.90;95.20;;;;;;5067862;28;20225;-83
2020/12/08 02:48:04;;;;;;;28.73;9.10;;;0.90;95.20;;;;;;5077866;28;20214;-83
2020/12/08 02:50:31;;;;;;;14.87;9.00;;;0.80;95.00;;;;;;5077665;28;20229;-88
2020/12/08 02:52:57;;;;;;;14.83;9.40;;;0.80;95.30;;;;;;5075732;28;20272;-86
2020/12/08 02:55:24;;;;;;;15.70;9.57;;;0.80;95.00;;;;;;5077768;28;20294;-85
2020/12/08 02:57:51;;;;;;;36.57;9.50;;;0.90;94.20;;;;;;5081052;28;20199;-84
2020/12/08 03:00:17;;;;;;;53.57;10.70;;;0.80;94.20;;;;;;5077228;28;20234;-83
2020/12/08 03:02:44;;;;;;;39.13;10.73;;;0.80;94.80;;;;;;5078367;28;20293;-84
2020/12/08 03:05:10;;;;;;;40.43;11.30;;;0.70;95.10;;;;;;5079063;28;20298;-83
2020/12/08 03:07:38;;;;;;;26.60;13.10;;;0.70;95.80;;;;;;5079252;28;20304;-85
2020/12/08 03:10:05;;;;;;;54.17;10.90;;;0.60;96.40;;;;;;5077486;28;20316;-83
2020/12/08 03:12:32;;;;;;;83.83;11.70;;;0.70;96.00;;;;;;5072018;28;20206;-82
2020/12/08 03:14:59;;;;;;;28.30;9.50;;;0.50;95.20;;;;;;5072259;28;20245;-83
2020/12/08 03:17:25;;;;;;;39.83;11.00;;;0.40;95.40;;;;;;5073619;28;20209;-85
2020/12/08 03:19:52;;;;;;;48.43;11.23;;;0.30;95.70;;;;;;5075161;28;20278;-83
2020/12/08 03:22:19;;;;;;;27.20;11.43;;;0.30;96.00;;;;;;5064739;28;20679;-86
2020/12/08 03:24:48;;;;;;;55.13;11.03;;;0.30;96.10;;;;;;5062257;28;20874;-83
2020/12/08 03:27:15;;;;;;;48.10;13.80;;;0.30;96.00;;;;;;5059425;28;20231;-83
2020/12/08 03:29:42;;;;;;;68.73;12.93;;;0.30;96.10;;;;;;5062275;28;20593;-83
2020/12/08 03:32:09;;;;;;;77.43;12.73;;;0.30;96.30;;;;;;5065128;28;20443;-85
2020/12/08 03:34:35;;;;;;;72.30;12.70;;;0.30;96.30;;;;;;5069382;28;20249;-82
2020/12/08 03:37:01;;;;;;;39.53;12.50;;;0.20;96.40;;;;;;5078312;28;20198;-82
2020/12/08 03:39:28;;;;;;;29.63;11.60;;;0.20;96.90;;;;;;5073630;28;20207;-84
2020/12/08 03:41:57;;;;;;;28.90;11.43;;;0.30;97.10;;;;;;5067590;28;20691;-84
2020/12/08 03:44:23;;;;;;;63.63;13.53;;;0.40;96.90;;;;;;5055842;28;20201;-86
2020/12/08 03:46:50;;;;;;;24.50;11.43;;;0.40;96.70;;;;;;5069197;28;20232;-84
2020/12/08 03:49:17;;;;;;;73.83;12.30;;;0.30;96.50;;;;;;5072300;28;20197;-86
2020/12/08 03:51:47;;;;;;;95.10;13.63;;;0.30;96.60;;;;;;5070642;28;20221;-82
2020/12/08 03:54:14;;;;;;;87.63;15.07;;;0.30;96.70;;;;;;5072424;28;20199;-84
2020/12/08 03:56:44;;;;;;;52.00;12.50;;;0.30;96.70;;;;;;5070447;28;20281;-83
2020/12/08 03:59:16;;;;;;;49.53;12.53;;;0.20;97.00;;;;;;5065214;28;20236;-86
2020/12/08 04:01:43;;;;;;;45.43;12.47;;;0.20;97.10;;;;;;5056953;28;20218;-83
2020/12/08 04:04:10;;;;;;;25.03;11.40;;;0.10;97.20;;;;;;5063010;28;20197;-83
2020/12/08 04:06:37;;;;;;;39.83;12.07;;;0.10;97.40;;;;;;5066467;28;20227;-85
2020/12/08 04:09:03;;;;;;;45.13;10.57;;;0.00;97.30;;;;;;5061379;28;20201;-83
2020/12/08 04:11:32;;;;;;;97.83;12.13;;;0.00;97.10;;;;;;5070373;28;20314;-83
2020/12/08 04:13:58;;;;;;;48.07;11.17;;;0.00;96.90;;;;;;5064776;28;20748;-85
2020/12/08 04:16:25;;;;;;;19.27;9.60;;;0.00;97.20;;;;;;5068077;28;20221;-83
2020/12/08 04:18:51;;;;;;;16.23;8.93;;;0.10;96.70;;;;;;5073351;28;20310;-84
2020/12/08 04:21:23;;;;;;;49.43;10.60;;;0.10;96.60;;;;;;5067901;28;20221;-83
2020/12/08 04:23:49;;;;;;;29.43;10.20;;;0.20;96.20;;;;;;5067845;28;20630;-86
2020/12/08 04:26:16;;;;;;;27.27;9.57;;;0.10;96.00;;;;;;5076659;28;20319;-84
2020/12/08 04:28:43;;;;;;;26.77;9.70;;;0.00;96.10;;;;;;5073606;28;20202;-84
2020/12/08 04:31:13;;;;;;;28.10;9.00;;;-0.10;96.30;;;;;;5071605;28;20229;-83
2020/12/08 04:33:40;;;;;;;25.40;9.30;;;-0.10;96.50;;;;;;5067678;28;20287;-83
2020/12/08 04:36:10;;;;;;;48.27;10.77;;;-0.10;96.60;;;;;;5074892;28;20601;-83
2020/12/08 04:38:38;;;;;;;43.53;9.33;;;0.00;96.60;;;;;;5071614;28;20656;-82
2020/12/08 04:41:05;;;;;;;26.57;9.70;;;0.00;96.10;;;;;;5067774;28;20247;-83
2020/12/08 04:43:31;;;;;;;19.03;8.93;;;0.10;96.00;;;;;;5070048;28;20577;-83
2020/12/08 04:45:58;;;;;;;37.57;9.47;;;0.10;95.60;;;;;;5061959;28;20236;-82
2020/12/08 04:48:25;;;;;;;23.13;8.80;;;0.10;95.50;;;;;;5065188;28;20658;-87
2020/12/08 04:50:51;;;;;;;17.50;8.37;;;0.10;95.50;;;;;;5066778;28;20296;-82
2020/12/08 04:53:18;;;;;;;11.13;7.77;;;0.10;95.20;;;;;;5075333;28;20205;-82
2020/12/08 04:55:45;;;;;;;24.50;7.50;;;0.00;94.80;;;;;;5073372;28;20274;-83
2020/12/08 04:58:12;;;;;;;11.80;8.13;;;0.00;94.70;;;;;;5067817;28;20205;-83
2020/12/08 05:00:41;;;;;;;9.63;7.60;;;0.10;94.40;;;;;;5070626;28;20288;-84
2020/12/08 05:03:09;;;;;;;10.07;7.43;;;0.20;94.10;;;;;;5073492;28;20197;-82
2020/12/08 05:05:39;;;;;;;11.30;7.50;;;0.20;94.10;;;;;;5069547;28;20225;-86
2020/12/08 05:08:10;;;;;;;9.40;7.63;;;0.10;94.00;;;;;;5070564;28;20229;-86
2020/12/08 05:10:36;;;;;;;15.77;7.90;;;0.10;94.00;;;;;;5070947;28;20223;-83
2020/12/08 05:13:06;;;;;;;13.10;7.40;;;0.20;94.10;;;;;;5068662;28;20293;-83
2020/12/08 05:15:32;;;;;;;12.33;7.90;;;0.20;94.10;;;;;;5072604;28;20225;-85
2020/12/08 05:18:06;;;;;;;10.97;7.23;;;0.10;94.00;;;;;;5069742;28;20641;-83
2020/12/08 05:20:33;;;;;;;11.93;7.73;;;0.00;94.00;;;;;;5069051;28;20581;-83
2020/12/08 05:23:00;;;;;;;11.07;7.30;;;-0.20;94.00;;;;;;5074025;28;20305;-83
2020/12/08 05:25:27;;;;;;;11.73;8.10;;;-0.30;94.70;;;;;;5069046;28;20579;-83
2020/12/08 05:27:56;;;;;;;11.73;7.60;;;-0.30;95.20;;;;;;5065138;28;20197;-87
2020/12/08 05:30:23;;;;;;;9.30;7.23;;;-0.20;94.90;;;;;;5065895;28;20305;-86
2020/12/08 05:32:50;;;;;;;9.70;7.50;;;-0.30;94.90;;;;;;5067412;28;20197;-84
2020/12/08 05:35:18;;;;;;;10.00;7.50;;;-0.20;94.80;;;;;;5071875;28;20677;-84
2020/12/08 05:37:46;;;;;;;18.23;8.10;;;-0.10;95.20;;;;;;5065579;28;20211;-83
2020/12/08 05:40:14;;;;;;;11.90;7.20;;;0.00;94.20;;;;;;5070049;28;20248;-82
2020/12/08 05:42:43;;;;;;;9.57;7.40;;;0.00;94.50;;;;;;5068346;28;20213;-85
2020/12/08 05:45:11;;;;;;;15.20;7.73;;;-0.10;94.70;;;;;;5068284;28;20271;-86
2020/12/08 05:47:44;;;;;;;12.77;7.40;;;0.00;94.00;;;;;;5070724;28;20205;-85
2020/12/08 05:50:12;;;;;;;11.53;7.00;;;-0.30;94.00;;;;;;5062627;28;20224;-83
2020/12/08 05:52:41;;;;;;;11.60;8.27;;;-0.40;93.90;;;;;;5070453;28;20197;-84
2020/12/08 05:55:12;;;;;;;17.20;8.43;;;-0.50;94.50;;;;;;5067551;28;20231;-84
2020/12/08 05:57:39;;;;;;;39.00;8.43;;;-0.60;94.70;;;;;;5070246;28;20295;-87
2020/12/08 06:00:07;;;;;;;10.43;8.17;;;-0.60;95.00;;;;;;5065599;28;20235;-84
2020/12/08 06:02:33;;;;;;;10.93;8.90;;;-0.50;95.60;;;;;;5057456;28;20569;-83
2020/12/08 06:05:01;;;;;;;10.10;8.00;;;-0.30;95.80;;;;;;5053805;28;20729;-83
2020/12/08 06:07:29;;;;;;;10.03;7.60;;;-0.20;95.20;;;;;;5064980;28;20243;-86
2020/12/08 06:10:11;;;;;;;10.73;7.80;;;-0.10;94.80;;;;;;5073829;28;20751;-86
2020/12/08 06:12:39;;;;;;;10.07;7.67;;;0.10;94.00;;;;;;5065533;28;20343;-84
2020/12/08 06:15:16;;;;;;;10.37;7.67;;;0.20;94.10;;;;;;5056920;28;20554;-85
2020/12/08 06:17:46;;;;;;;12.00;8.37;;;0.20;94.00;;;;;;5054931;28;20630;-87
2020/12/08 06:20:14;;;;;;;9.20;7.63;;;0.20;94.30;;;;;;5060667;28;20220;-83
2020/12/08 06:22:40;;;;;;;9.50;7.67;;;0.00;93.70;;;;;;5062646;28;20204;-88
2020/12/08 06:25:07;;;;;;;10.03;7.73;;;-0.10;94.00;;;;;;5053661;28;20573;-84
2020/12/08 06:27:33;;;;;;;10.87;8.17;;;-0.20;94.00;;;;;;5065221;28;20225;-87
2020/12/08 06:29:59;;;;;;;9.67;7.77;;;-0.20;94.90;;;;;;5068092;28;20232;-86
2020/12/08 06:32:27;;;;;;;9.93;7.43;;;-0.10;94.40;;;;;;5068765;28;20220;-84
2020/12/08 06:35:08;;;;;;;8.60;7.60;;;-0.10;94.30;;;;;;5071652;28;20226;-87
2020/12/08 06:37:36;;;;;;;9.40;7.17;;;0.00;94.00;;;;;;5065538;28;20415;-84
2020/12/08 06:40:10;;;;;;;8.40;6.80;;;0.20;94.10;;;;;;5070755;28;20256;-84
2020/12/08 06:42:36;;;;;;;8.40;6.77;;;0.10;93.40;;;;;;5071268;28;20271;-83
2020/12/08 06:45:10;;;;;;;8.13;6.37;;;0.10;93.60;;;;;;5073135;28;20231;-85
2020/12/08 06:47:37;;;;;;;7.80;6.57;;;0.10;93.70;;;;;;5068346;28;20201;-83
2020/12/08 06:50:05;;;;;;;7.77;6.20;;;0.00;94.00;;;;;;5073030;28;20225;-83
2020/12/08 06:52:31;;;;;;;7.63;6.60;;;0.10;93.70;;;;;;5071073;28;20194;-85
2020/12/08 06:55:04;;;;;;;7.40;6.60;;;0.10;93.80;;;;;;5069572;28;20221;-85
2020/12/08 06:57:30;;;;;;;9.50;6.60;;;0.20;93.70;;;;;;5063291;28;20204;-84
2020/12/08 07:00:18;;;;;;;9.00;6.60;;;0.20;93.00;;;;;;5061412;28;20293;-84
2020/12/08 07:02:51;;;;;;;8.60;6.77;;;0.10;92.90;;;;;;5063239;28;20189;-85
2020/12/08 07:05:23;;;;;;;8.03;7.00;;;0.00;93.30;;;;;;5072125;28;20226;-83
2020/12/08 07:07:50;;;;;;;9.40;7.40;;;0.00;94.00;;;;;;5072945;28;20290;-85
2020/12/08 07:10:18;;;;;;;8.50;6.83;;;-0.10;94.00;;;;;;5072982;28;20689;-82
2020/12/08 07:12:48;;;;;;;11.17;7.40;;;-0.20;94.00;;;;;;5071896;28;20205;-83
2020/12/08 07:15:16;;;;;;;10.23;8.00;;;-0.20;94.30;;;;;;5069173;28;20578;-83
2020/12/08 07:17:43;;;;;;;8.50;7.27;;;-0.20;94.00;;;;;;5070891;28;20204;-82
2020/12/08 07:20:09;;;;;;;9.57;7.37;;;-0.10;94.00;;;;;;5073730;28;20562;-82
2020/12/08 07:22:43;;;;;;;9.00;7.27;;;-0.10;94.00;;;;;;5065383;28;20190;-83
2020/12/08 07:25:11;;;;;;;8.23;6.97;;;-0.10;94.00;;;;;;5073081;28;20235;-84
2020/12/08 07:27:42;;;;;;;8.47;7.33;;;0.00;93.40;;;;;;5067669;28;20540;-82
2020/12/08 07:30:09;;;;;;;10.00;8.00;;;-0.10;93.10;;;;;;5072235;28;20324;-83
2020/12/08 07:32:36;;;;;;;10.17;8.13;;;-0.10;93.70;;;;;;5068674;28;20425;-83
2020/12/08 07:35:03;;;;;;;10.67;7.67;;;-0.10;93.50;;;;;;5074272;28;20344;-84
2020/12/08 07:37:35;;;;;;;10.50;8.10;;;-0.10;93.60;;;;;;5069581;28;20194;-83
2020/12/08 07:40:07;;;;;;;10.20;7.97;;;-0.10;93.60;;;;;;5068193;28;20304;-82
2020/12/08 07:42:33;;;;;;;10.50;8.33;;;-0.10;94.00;;;;;;5076643;28;20297;-83
2020/12/08 07:45:00;;;;;;;11.57;8.97;;;-0.10;94.00;;;;;;5074048;28;20633;-82
2020/12/08 07:47:27;;;;;;;11.10;8.20;;;-0.10;94.00;;;;;;5075326;28;20398;-85
2020/12/08 07:49:53;;;;;;;10.40;8.23;;;-0.10;94.00;;;;;;5068879;28;20300;-85
2020/12/08 07:52:20;;;;;;;10.50;8.03;;;-0.10;94.00;;;;;;5073244;28;20633;-87
2020/12/08 07:54:46;;;;;;;10.50;8.73;;;0.00;94.00;;;;;;5075983;28;20285;-83
2020/12/08 07:57:13;;;;;;;10.67;8.27;;;0.00;93.80;;;;;;5078404;28;20276;-82
2020/12/08 07:59:39;;;;;;;9.33;7.50;;;0.00;93.60;;;;;;5072289;28;20915;-86
2020/12/08 08:02:07;;;;;;;11.87;8.40;;;0.00;93.70;;;;;;5068575;28;20203;-86
2020/12/08 08:04:33;;;;;;;10.43;8.20;;;-0.10;93.70;;;;;;5073792;28;20194;-84
2020/12/08 08:07:00;;;;;;;10.00;7.47;;;-0.10;94.00;;;;;;5074966;28;20767;-85
2020/12/08 08:09:26;;;;;;;10.07;7.87;;;0.00;94.00;;;;;;5071077;28;20554;-83
2020/12/08 08:11:53;;;;;;;10.43;8.13;;;0.10;93.60;;;;;;5068952;28;20311;-83
2020/12/08 08:14:20;;;;;;;8.90;7.60;;;0.10;93.60;;;;;;5080631;28;20198;-85
2020/12/08 08:16:47;;;;;;;9.57;8.10;;;0.00;93.80;;;;;;5078224;28;20237;-84
2020/12/08 08:19:15;;;;;;;10.77;8.57;;;0.20;94.00;;;;;;5072845;28;20258;-84
2020/12/08 08:21:44;;;;;;;11.23;7.97;;;0.30;93.50;;;;;;5076515;28;20619;-85
2020/12/08 08:24:11;;;;;;;10.90;8.53;;;0.30;93.20;;;;;;5075732;28;20194;-84
2020/12/08 08:26:40;;;;;;;9.63;7.77;;;0.30;93.10;;;;;;5075913;28;20223;-86
2020/12/08 08:29:06;;;;;;;12.00;8.70;;;0.30;92.90;;;;;;5069002;28;20221;-87
2020/12/08 08:31:33;;;;;;;10.10;8.33;;;0.40;92.80;;;;;;5064590;28;20323;-85
2020/12/08 08:33:59;;;;;;;11.57;9.40;;;0.50;92.80;;;;;;5067172;28;20305;-84
2020/12/08 08:36:26;;;;;;;11.37;9.03;;;0.60;93.00;;;;;;5074312;28;20307;-85
2020/12/08 08:38:53;;;;;;;9.10;7.80;;;0.60;92.70;;;;;;5079176;28;20212;-84
2020/12/08 08:41:19;;;;;;;9.80;8.60;;;0.80;92.80;;;;;;5077617;28;20226;-87
2020/12/08 08:43:46;;;;;;;10.67;8.47;;;0.80;92.70;;;;;;5066620;28;20290;-83
2020/12/08 08:46:12;;;;;;;10.23;8.57;;;0.90;91.90;;;;;;5077871;28;20597;-84
2020/12/08 08:48:39;;;;;;;12.93;9.27;;;0.90;91.80;;;;;;5079763;28;20473;-83
2020/12/08 08:51:05;;;;;;;13.03;10.00;;;1.00;92.10;;;;;;5083450;28;20238;-84
2020/12/08 08:53:32;;;;;;;12.77;9.07;;;0.90;92.00;;;;;;5081161;28;20196;-84
2020/12/08 08:55:59;;;;;;;11.83;8.73;;;1.00;92.00;;;;;;5074567;28;20237;-85
2020/12/08 08:58:25;;;;;;;12.10;9.00;;;1.00;92.00;;;;;;5077796;28;20229;-84
2020/12/08 09:00:52;;;;;;;12.93;9.47;;;1.00;91.80;;;;;;5078008;28;20216;-88
2020/12/08 09:03:18;;;;;;;12.97;9.37;;;0.90;91.80;;;;;;5071212;28;20289;-84
2020/12/08 09:05:45;;;;;;;12.40;9.57;;;1.00;92.00;;;;;;5075916;28;20320;-84
2020/12/08 09:08:11;;;;;;;11.27;8.87;;;1.10;91.60;;;;;;5078394;28;20299;-82
2020/12/08 09:10:38;;;;;;;10.73;9.27;;;1.20;91.60;;;;;;5071769;28;20639;-84
2020/12/08 09:13:05;;;;;;;11.53;8.90;;;1.20;91.90;;;;;;5078799;28;20275;-82
2020/12/08 09:15:31;;;;;;;13.63;9.20;;;1.10;91.60;;;;;;5078281;28;20242;-84
2020/12/08 09:17:58;;;;;;;12.63;9.73;;;1.30;91.60;;;;;;5070521;28;20205;-85
2020/12/08 09:20:25;;;;;;;13.03;9.97;;;1.40;91.30;;;;;;5063674;28;20238;-85
2020/12/08 09:22:51;;;;;;;11.70;9.10;;;1.40;91.10;;;;;;5078523;28;20235;-86
2020/12/08 09:25:22;;;;;;;12.20;9.07;;;1.40;91.40;;;;;;5076095;28;20239;-84
2020/12/08 09:27:49;;;;;;;11.10;8.80;;;1.40;91.20;;;;;;5075916;28;20517;-83
2020/12/08 09:30:16;;;;;;;11.97;9.40;;;1.50;91.40;;;;;;5074133;28;20299;-83
2020/12/08 09:32:42;;;;;;;14.70;9.23;;;1.60;91.10;;;;;;5073070;28;20215;-84
2020/12/08 09:35:09;;;;;;;16.33;8.70;;;1.70;90.90;;;;;;5071332;28;20232;-85
2020/12/08 09:37:36;;;;;;;11.20;8.70;;;1.80;90.90;;;;;;5073080;28;20290;-82
2020/12/08 09:40:03;;;;;;;11.87;9.57;;;2.00;90.60;;;;;;5076221;28;20645;-82
2020/12/08 09:42:30;;;;;;;11.37;9.47;;;2.20;90.50;;;;;;5076605;28;20256;-82
2020/12/08 09:44:58;;;;;;;12.33;9.00;;;2.10;90.20;;;;;;5074968;28;20307;-84
2020/12/08 09:47:24;;;;;;;10.83;9.20;;;2.10;90.40;;;;;;5061324;28;20209;-84
2020/12/08 09:49:50;;;;;;;15.40;11.10;;;2.10;90.40;;;;;;5067636;28;20200;-83
2020/12/08 09:52:17;;;;;;;12.70;9.70;;;2.20;90.40;;;;;;5068030;28;20279;-85
2020/12/08 09:54:43;;;;;;;14.73;10.00;;;2.30;90.40;;;;;;5068265;28;20303;-84
2020/12/08 09:57:10;;;;;;;15.97;11.27;;;2.10;90.30;;;;;;5063442;28;20287;-85
2020/12/08 09:59:36;;;;;;;13.10;9.97;;;2.00;90.70;;;;;;5058521;28;20235;-85
2020/12/08 10:02:03;;;;;;;17.27;10.53;;;2.10;90.70;;;;;;5058095;28;20739;-84
2020/12/08 10:04:30;;;;;;;15.40;9.70;;;2.20;90.70;;;;;;5064732;28;20644;-86
2020/12/08 10:06:56;;;;;;;11.97;9.60;;;2.10;90.60;;;;;;5069272;28;20221;-84
2020/12/08 10:09:23;;;;;;;13.00;9.83;;;2.30;90.50;;;;;;5077951;28;20239;-83
2020/12/08 10:11:49;;;;;;;11.53;9.00;;;2.40;90.30;;;;;;5067427;28;20240;-82
2020/12/08 10:14:16;;;;;;;12.43;9.00;;;2.50;89.70;;;;;;5057527;28;20204;-83
2020/12/08 10:16:42;;;;;;;9.47;8.00;;;2.60;87.50;;;;;;5068159;28;20234;-85
2020/12/08 10:19:10;;;;;;;13.93;9.77;;;2.60;87.50;;;;;;5065552;28;20211;-86
2020/12/08 10:21:39;;;;;;;11.53;9.17;;;2.70;87.50;;;;;;5073902;28;20212;-86
2020/12/08 10:24:05;;;;;;;12.93;9.63;;;2.60;87.50;;;;;;5082197;28;20666;-83
2020/12/08 10:26:32;;;;;;;12.23;9.27;;;2.50;87.40;;;;;;5073817;28;20706;-83
2020/12/08 10:28:59;;;;;;;13.33;9.07;;;2.50;87.40;;;;;;5074161;28;20554;-85
2020/12/08 10:31:26;;;;;;;14.37;9.27;;;2.60;88.20;;;;;;5080476;28;20780;-86
2020/12/08 10:33:52;;;;;;;13.07;9.30;;;2.70;87.50;;;;;;5074182;28;20233;-84
2020/12/08 10:36:20;;;;;;;12.00;9.20;;;2.70;87.50;;;;;;5069431;28;20316;-86
2020/12/08 10:38:47;;;;;;;10.87;8.63;;;2.70;87.50;;;;;;5071844;28;20197;-83
2020/12/08 10:41:13;;;;;;;13.60;9.30;;;2.90;87.70;;;;;;5074689;28;20491;-82
2020/12/08 10:43:39;;;;;;;10.90;8.80;;;3.00;87.70;;;;;;5072045;28;20235;-84
2020/12/08 10:46:06;;;;;;;9.53;7.63;;;3.00;87.70;;;;;;5070317;28;20308;-84
2020/12/08 10:48:32;;;;;;;11.87;8.70;;;3.20;86.60;;;;;;5068145;28;20220;-83
2020/12/08 10:50:59;;;;;;;11.23;8.10;;;3.10;85.00;;;;;;5067829;28;20245;-86
2020/12/08 10:53:27;;;;;;;10.20;7.60;;;3.30;85.80;;;;;;5069301;28;20206;-83
2020/12/08 10:55:54;;;;;;;9.63;7.53;;;3.50;83.80;;;;;;5059005;28;20271;-88
2020/12/08 10:58:21;;;;;;;9.30;7.07;;;3.70;82.50;;;;;;5067294;28;20292;-85
2020/12/08 11:00:47;;;;;;;9.53;7.50;;;3.90;81.60;;;;;;5068624;28;20580;-85
2020/12/08 11:03:13;;;;;;;18.07;12.07;;;4.00;80.60;;;;;;5062145;28;20297;-84
2020/12/08 11:05:40;;;;;;;8.57;7.20;;;4.00;79.70;;;;;;5068879;28;20221;-85
2020/12/08 11:08:07;;;;;;;11.47;9.40;;;4.10;78.80;;;;;;5073445;28;20713;-84
2020/12/08 11:10:34;;;;;;;9.60;7.40;;;3.90;79.80;;;;;;5068275;28;20251;-84
2020/12/08 11:13:00;;;;;;;9.97;7.40;;;3.90;79.80;;;;;;5067590;28;20475;-86
2020/12/08 11:15:27;;;;;;;9.27;7.30;;;3.90;79.30;;;;;;5071851;28;20311;-86
2020/12/08 11:17:53;;;;;;;7.87;6.70;;;3.80;79.70;;;;;;5067643;28;20751;-85
2020/12/08 11:20:19;;;;;;;9.77;6.73;;;3.80;79.50;;;;;;5074871;28;20213;-86
2020/12/08 11:22:46;;;;;;;9.20;7.03;;;3.70;79.70;;;;;;5071989;28;20287;-84
2020/12/08 11:25:12;;;;;;;8.03;6.33;;;3.50;81.70;;;;;;5073043;28;20967;-84
2020/12/08 11:27:40;;;;;;;9.70;7.00;;;3.40;82.20;;;;;;5070058;28;20788;-84
2020/12/08 11:30:06;;;;;;;8.73;6.67;;;3.60;81.40;;;;;;5065940;28;20551;-84
2020/12/08 11:32:33;;;;;;;12.10;6.57;;;3.60;81.00;;;;;;5066302;28;20198;-83
2020/12/08 11:34:59;;;;;;;8.57;6.47;;;3.60;80.60;;;;;;5077164;28;20221;-84
2020/12/08 11:37:28;;;;;;;11.07;6.87;;;3.70;79.90;;;;;;5076086;28;20548;-85
2020/12/08 11:39:54;;;;;;;8.93;6.47;;;3.70;79.70;;;;;;5067086;28;20721;-85
2020/12/08 11:42:21;;;;;;;7.13;6.43;;;3.70;79.70;;;;;;5071868;28;20205;-84
2020/12/08 11:44:48;;;;;;;12.63;7.13;;;3.70;79.70;;;;;;5070245;28;20299;-84
2020/12/08 11:47:15;;;;;;;9.27;6.57;;;3.60;80.40;;;;;;5072638;28;20204;-86
2020/12/08 11:49:43;;;;;;;9.10;6.33;;;3.60;79.90;;;;;;5071115;28;20680;-85
2020/12/08 11:52:12;;;;;;;10.97;6.00;;;3.60;80.00;;;;;;5074698;28;20204;-84
2020/12/08 11:54:40;;;;;;;8.40;6.20;;;3.70;79.80;;;;;;5076873;28;20201;-86
2020/12/08 11:57:06;;;;;;;7.27;6.10;;;3.60;80.30;;;;;;5076578;28;20233;-87
2020/12/08 11:59:33;;;;;;;10.10;7.27;;;3.70;78.20;;;;;;5073792;28;20660;-88
2020/12/08 12:02:00;;;;;;;9.73;5.80;;;3.80;78.70;;;;;;5062235;28;20217;-86
2020/12/08 12:04:27;;;;;;;11.13;6.10;;;3.70;79.50;;;;;;5070784;28;20201;-88
2020/12/08 12:06:53;;;;;;;7.50;6.20;;;3.70;79.70;;;;;;5068499;28;20324;-86
2020/12/08 12:09:19;;;;;;;9.27;6.00;;;3.60;80.00;;;;;;5074376;28;20193;-88
2020/12/08 12:11:46;;;;;;;10.37;6.73;;;3.60;80.60;;;;;;5075517;28;20231;-87
2020/12/08 12:14:13;;;;;;;12.97;6.90;;;3.70;81.40;;;;;;5075689;28;20660;-83
2020/12/08 12:16:39;;;;;;;13.10;7.30;;;3.60;82.00;;;;;;5074945;28;21090;-85
2020/12/08 12:19:06;;;;;;;14.37;7.30;;;3.60;82.00;;;;;;5073510;28;20213;-85
2020/12/08 12:21:34;;;;;;;14.67;7.60;;;3.60;82.60;;;;;;5067014;28;20220;-85
2020/12/08 12:24:01;;;;;;;13.03;7.50;;;3.60;82.80;;;;;;5070791;28;20308;-85
2020/12/08 12:26:27;;;;;;;10.00;7.30;;;3.60;82.50;;;;;;5071033;28;20224;-88
2020/12/08 12:28:54;;;;;;;9.17;6.47;;;3.70;82.40;;;;;;5081330;28;20261;-85
2020/12/08 12:31:21;;;;;;;11.17;7.07;;;3.60;82.40;;;;;;5074215;28;20255;-84
2020/12/08 12:33:49;;;;;;;11.03;7.40;;;3.70;82.20;;;;;;5064898;28;20194;-84
2020/12/08 12:36:16;;;;;;;14.87;7.07;;;3.80;82.30;;;;;;5074078;28;20274;-84
2020/12/08 12:38:42;;;;;;;17.93;7.50;;;3.80;83.40;;;;;;5077855;28;20564;-84
2020/12/08 12:41:09;;;;;;;12.43;7.10;;;3.80;82.80;;;;;;5078135;28;20256;-84
2020/12/08 12:43:35;;;;;;;10.20;7.00;;;3.70;83.10;;;;;;5074387;28;20272;-84